createdAt,value
2023-01-28T00:03:52.433Z,92803.47
2023-01-28T00:08:56.300Z,92787.66
2023-01-28T00:13:59.858Z,92803.84
2023-01-28T00:19:03.399Z,92808.56
2023-01-28T00:24:07.424Z,92806.41
2023-01-28T00:29:10.635Z,92812.53
2023-01-28T00:34:13.743Z,92811.44
2023-01-28T00:39:17.254Z,92796.22
2023-01-28T00:44:21.713Z,92815.28
2023-01-28T00:49:25.074Z,92815.34
2023-01-28T00:54:28.346Z,92816.88
2023-01-28T00:59:31.715Z,92823.16
2023-01-28T01:04:35.674Z,92827.16
2023-01-28T01:09:39.568Z,92833.41
2023-01-28T01:14:42.510Z,92825.13
2023-01-28T01:19:45.923Z,92824.97
2023-01-28T01:24:49.221Z,92815.72
2023-01-28T01:29:52.236Z,92833.16
2023-01-28T01:34:55.284Z,92819.72
2023-01-28T01:39:58.949Z,92826.91
2023-01-28T01:45:03.824Z,92833.31
2023-01-28T01:50:16.792Z,92841.66
2023-01-28T01:55:25.383Z,92840.22
2023-01-28T02:00:29.672Z,92841.13
2023-01-28T02:05:32.946Z,92825.88
2023-01-28T02:10:36.852Z,92825.13
2023-01-28T02:15:40.001Z,92826.28
2023-01-28T02:21:33.526Z,92820.56
2023-01-28T02:27:02.111Z,92820.78
2023-01-28T02:32:40.685Z,92814.28
2023-01-28T02:37:47.176Z,92818.56
2023-01-28T02:42:50.493Z,92805.47
2023-01-28T02:48:00.514Z,92798.41
2023-01-28T02:53:44.223Z,92793.72
2023-01-28T02:58:59.801Z,92789.00
2023-01-28T03:04:30.720Z,92799.88
2023-01-28T03:09:36.266Z,92795.31
2023-01-28T03:15:01.174Z,92793.94
2023-01-28T03:20:24.042Z,92799.66
2023-01-28T03:25:47.019Z,92774.91
2023-01-28T03:31:36.667Z,92798.41
2023-01-28T03:36:56.519Z,92699.25
2023-01-28T03:42:12.247Z,92806.22
2023-01-28T03:47:40.948Z,92745.88
2023-01-28T03:52:47.091Z,92801.59
2023-01-28T03:58:06.245Z,92816.16
2023-01-28T04:03:17.363Z,92824.06
2023-01-28T04:08:29.893Z,92842.25
2023-01-28T04:13:51.568Z,92846.16
2023-01-28T04:18:55.831Z,92830.38
2023-01-28T04:23:58.967Z,92850.84
2023-01-28T04:29:03.666Z,92852.03
2023-01-28T04:34:10.313Z,92854.03
2023-01-28T04:39:21.669Z,92850.94
2023-01-28T04:44:44.271Z,92856.75
2023-01-28T04:50:09.285Z,92869.69
2023-01-28T04:55:24.478Z,92861.53
2023-01-28T05:00:28.380Z,92868.59
2023-01-28T05:05:31.524Z,92861.34
2023-01-28T05:10:40.759Z,92863.94
2023-01-28T05:15:44.328Z,92839.19
2023-01-28T05:20:48.027Z,92890.19
2023-01-28T05:25:52.113Z,92894.31
2023-01-28T05:30:56.034Z,92885.81
2023-01-28T05:35:59.516Z,92895.22
2023-01-28T05:41:03.460Z,92894.75
2023-01-28T05:46:07.514Z,92890.50
2023-01-28T05:51:39.710Z,92890.69
2023-01-28T05:56:44.803Z,92896.53
2023-01-28T06:01:48.683Z,92892.75
2023-01-28T06:06:54.440Z,92868.19
2023-01-28T06:11:58.005Z,92897.66
2023-01-28T06:17:11.825Z,92904.41
2023-01-28T06:22:36.125Z,92911.13
2023-01-28T06:27:39.641Z,92891.41
2023-01-28T06:32:42.879Z,92912.31
2023-01-28T06:37:46.732Z,92915.78
2023-01-28T06:42:50.447Z,92921.56
2023-01-28T06:47:54.032Z,92923.75
2023-01-28T06:52:57.802Z,92890.09
2023-01-28T06:58:01.336Z,92924.47
2023-01-28T07:03:05.502Z,92919.88
2023-01-28T07:08:08.638Z,92943.22
2023-01-28T07:13:12.428Z,92940.63
2023-01-28T07:18:15.521Z,92938.28
2023-01-28T07:23:18.898Z,92944.34
2023-01-28T07:28:22.388Z,92951.75
2023-01-28T07:33:25.724Z,92940.84
2023-01-28T07:38:29.500Z,92949.16
2023-01-28T07:43:32.588Z,92936.53
2023-01-28T07:48:36.583Z,92951.53
2023-01-28T07:53:40.154Z,92940.75
2023-01-28T07:58:44.600Z,92942.03
2023-01-28T08:03:47.641Z,92938.88
2023-01-28T08:08:51.474Z,92949.69
2023-01-28T08:13:54.564Z,92941.34
2023-01-28T08:18:58.429Z,92942.97
2023-01-28T08:24:01.657Z,92936.81
2023-01-28T08:29:05.936Z,92955.56
2023-01-28T08:34:09.788Z,92957.09
2023-01-28T08:39:13.298Z,92953.69
2023-01-28T08:44:16.937Z,92927.72
2023-01-28T08:49:22.489Z,92977.28
2023-01-28T08:54:26.129Z,92974.25
2023-01-28T08:59:29.181Z,92993.78
2023-01-28T09:04:32.301Z,92995.63
2023-01-28T09:09:35.397Z,92995.00
2023-01-28T09:14:38.830Z,93001.13
2023-01-28T09:19:41.871Z,92999.09
2023-01-28T09:24:45.652Z,92984.50
2023-01-28T09:29:49.248Z,92981.47
2023-01-28T09:34:52.316Z,92994.78
2023-01-28T09:39:56.415Z,92985.31
2023-01-28T09:45:17.062Z,92980.13
2023-01-28T09:50:31.473Z,92977.97
2023-01-28T09:55:41.851Z,92980.34
2023-01-28T10:01:05.830Z,92981.03
2023-01-28T10:06:14.741Z,92984.00
2023-01-28T10:11:24.412Z,92967.56
2023-01-28T10:16:51.029Z,92969.00
2023-01-28T10:22:06.277Z,92971.91
2023-01-28T10:27:15.877Z,92966.06
2023-01-28T10:32:37.368Z,92968.09
2023-01-28T10:37:41.251Z,92970.72
2023-01-28T10:42:45.718Z,92988.75
2023-01-28T10:48:08.721Z,92988.28
2023-01-28T10:53:14.694Z,92972.44
2023-01-28T10:58:24.444Z,92964.72
2023-01-28T11:26:38.725Z,92964.19
2023-01-28T11:31:44.895Z,92962.75
2023-01-28T11:36:53.443Z,92964.34
2023-01-28T11:42:20.808Z,92951.56
2023-01-28T11:48:11.059Z,92959.94
2023-01-28T11:53:28.766Z,92931.28
2023-01-28T11:58:34.695Z,92951.19
2023-01-28T12:04:13.208Z,92961.19
2023-01-28T12:09:47.012Z,92956.31
2023-01-28T12:15:17.570Z,92955.19
2023-01-28T12:20:32.830Z,92935.00
2023-01-28T12:25:46.538Z,92935.34
2023-01-28T12:31:28.133Z,92929.25
2023-01-28T12:37:00.377Z,92920.66
2023-01-28T12:42:11.405Z,92922.63
2023-01-28T12:47:23.141Z,92907.91
2023-01-28T12:52:55.844Z,92916.94
2023-01-28T12:57:59.703Z,92921.03
2023-01-28T13:03:09.920Z,92909.13
2023-01-28T13:08:25.697Z,92914.94
2023-01-28T13:13:38.946Z,92920.00
2023-01-28T13:18:46.115Z,92930.00
2023-01-28T13:23:50.674Z,92927.44
2023-01-28T13:28:55.631Z,92921.03
2023-01-28T13:33:58.612Z,92932.56
2023-01-28T13:39:15.669Z,92922.81
2023-01-28T13:44:30.441Z,92930.66
2023-01-28T13:49:48.425Z,92937.31
2023-01-28T13:55:06.300Z,92917.13
2023-01-28T14:00:33.964Z,92941.88
2023-01-28T14:05:55.351Z,92946.44
2023-01-28T14:11:07.868Z,92949.91
2023-01-28T14:16:18.916Z,92950.03
2023-01-28T14:21:23.361Z,92952.28
2023-01-28T14:26:33.093Z,92964.41
2023-01-28T14:31:39.498Z,92961.75
2023-01-28T14:36:45.935Z,92971.13
2023-01-28T14:41:54.207Z,92958.59
2023-01-28T14:47:35.314Z,92983.16
2023-01-28T14:52:56.887Z,92993.25
2023-01-28T14:58:09.572Z,92988.16
2023-01-28T15:03:27.170Z,92990.09
2023-01-28T15:08:32.689Z,92994.78
2023-01-28T15:13:42.858Z,93005.75
2023-01-28T15:18:47.837Z,93022.66
2023-01-28T15:24:03.370Z,93021.69
2023-01-28T15:29:06.994Z,93035.34
2023-01-28T15:34:15.576Z,93028.94
2023-01-28T15:39:21.235Z,93035.38
2023-01-28T15:44:44.434Z,93034.69
2023-01-28T15:49:50.748Z,93045.41
2023-01-28T15:54:53.960Z,93050.97
2023-01-28T16:00:13.585Z,93054.25
2023-01-28T16:05:31.536Z,93054.84
2023-01-28T16:10:35.319Z,93041.31
2023-01-28T16:15:39.649Z,93056.03
2023-01-28T16:20:42.691Z,93063.94
2023-01-28T16:25:46.340Z,93055.50
2023-01-28T16:30:49.374Z,93062.44
2023-01-28T16:36:07.761Z,93069.19
2023-01-28T16:41:24.931Z,93079.13
2023-01-28T16:46:28.605Z,93098.19
2023-01-28T16:51:32.437Z,93107.59
2023-01-28T16:56:45.234Z,93119.06
2023-01-28T17:01:50.482Z,93101.94
2023-01-28T17:06:54.336Z,93143.69
2023-01-28T17:11:57.490Z,93124.16
2023-01-28T17:17:00.680Z,93149.53
2023-01-28T17:22:06.377Z,93145.81
2023-01-28T17:27:10.000Z,93136.06
2023-01-28T17:32:13.163Z,93146.97
2023-01-28T17:37:16.429Z,93160.03
2023-01-28T17:42:20.276Z,93164.78
2023-01-28T17:47:23.872Z,93167.28
2023-01-28T17:52:27.533Z,93178.13
2023-01-28T17:57:31.027Z,93169.94
2023-01-28T18:02:34.338Z,93177.16
2023-01-28T18:07:37.418Z,93182.19
2023-01-28T18:12:41.405Z,93198.13
2023-01-28T18:17:44.565Z,93196.97
2023-01-28T18:22:47.784Z,93210.47
2023-01-28T18:27:52.548Z,93218.66
2023-01-28T18:32:55.565Z,93219.97
2023-01-28T18:38:03.110Z,93213.63
2023-01-28T18:43:06.835Z,93236.13
2023-01-28T18:48:10.028Z,93232.41
2023-01-28T18:53:13.945Z,93235.72
2023-01-28T18:58:17.132Z,93223.34
2023-01-28T19:03:21.294Z,93228.41
2023-01-28T19:08:24.377Z,93243.81
2023-01-28T19:13:27.845Z,93240.22
2023-01-28T19:18:32.092Z,93243.81
2023-01-28T19:23:49.279Z,93246.63
2023-01-28T19:28:53.971Z,93247.06
2023-01-28T19:33:59.484Z,93251.31
2023-01-28T19:39:09.249Z,93255.28
2023-01-28T19:44:12.563Z,93247.75
2023-01-28T19:49:16.825Z,93238.84
2023-01-28T19:54:19.909Z,93251.41
2023-01-28T19:59:23.184Z,93239.66
2023-01-28T20:04:26.632Z,93253.88
2023-01-28T20:09:30.566Z,93262.00
2023-01-28T20:14:34.055Z,93253.94
2023-01-28T20:19:38.245Z,93267.81
2023-01-28T20:24:43.862Z,93256.00
2023-01-28T20:29:47.010Z,93273.59
2023-01-28T20:34:52.593Z,93256.03
2023-01-28T20:39:55.629Z,93276.31
2023-01-28T20:44:59.152Z,93263.44
2023-01-28T20:50:02.774Z,93274.38
2023-01-28T20:55:08.132Z,93291.84
2023-01-28T21:00:13.178Z,93288.06
2023-01-28T21:05:17.373Z,93273.00
2023-01-28T21:10:20.471Z,93300.66
2023-01-28T21:15:24.184Z,93299.53
2023-01-28T21:20:27.461Z,93305.03
2023-01-28T21:25:33.010Z,93300.44
2023-01-28T21:30:36.106Z,93287.47
2023-01-28T21:35:41.239Z,93292.66
2023-01-28T21:40:44.776Z,93285.66
2023-01-28T21:45:55.709Z,93281.03
2023-01-28T21:51:28.176Z,93284.06
2023-01-28T21:56:31.827Z,93283.97
2023-01-28T22:01:35.977Z,93295.75
2023-01-28T22:06:39.525Z,93296.19
2023-01-28T22:11:44.348Z,93296.75
2023-01-28T22:16:48.985Z,93288.53
2023-01-28T22:21:52.194Z,93292.59
2023-01-28T22:26:55.813Z,93288.09
2023-01-28T22:31:58.925Z,93299.16
2023-01-28T22:37:02.431Z,93308.72
2023-01-28T22:42:05.646Z,93298.56
2023-01-28T22:47:09.335Z,93303.97
2023-01-28T22:52:12.570Z,93294.31
2023-01-28T22:57:15.599Z,93309.94
2023-01-28T23:02:18.709Z,93304.28
2023-01-28T23:07:22.831Z,93297.31
2023-01-28T23:12:26.350Z,93305.75
2023-01-28T23:17:48.600Z,93290.63
2023-01-28T23:23:10.072Z,93307.72
2023-01-28T23:28:14.567Z,93307.41
2023-01-28T23:33:18.145Z,93307.69
2023-01-28T23:38:21.724Z,93308.63
2023-01-28T23:43:25.133Z,93318.56
2023-01-28T23:48:28.559Z,93315.75
2023-01-28T23:53:31.837Z,93314.50
2023-01-28T23:58:43.190Z,93310.13
